createdAt,value
2022-11-15T00:04:16.845Z,4.53
2022-11-15T00:09:55.211Z,8.93
2022-11-15T00:15:31.225Z,6.53
2022-11-15T00:21:09.395Z,4.43
2022-11-15T00:23:57.529Z,8.57
2022-11-15T00:29:26.860Z,7.23
2022-11-15T00:32:15.109Z,6.07
2022-11-15T00:37:55.645Z,4.53
2022-11-15T00:40:44.283Z,5.27
2022-11-15T00:43:44.634Z,7.03
2022-11-15T00:46:33.281Z,6.60
2022-11-15T00:52:06.535Z,4.53
2022-11-15T00:54:55.232Z,6.60
2022-11-15T00:57:43.205Z,8.63
2022-11-15T01:00:31.550Z,4.73
2022-11-15T01:06:02.975Z,7.77
2022-11-15T01:11:39.642Z,6.53
2022-11-15T01:17:08.217Z,6.00
2022-11-15T01:22:37.645Z,7.53
2022-11-15T01:28:12.844Z,6.00
2022-11-15T01:33:51.042Z,4.73
2022-11-15T01:39:22.154Z,3.97
2022-11-15T01:44:59.869Z,5.23
2022-11-15T01:47:51.074Z,4.70
2022-11-15T01:53:26.474Z,4.90
2022-11-15T01:59:00.369Z,7.03
2022-11-15T02:01:50.247Z,4.90
2022-11-15T02:07:26.059Z,4.13
2022-11-15T02:10:15.696Z,6.77
2022-11-15T02:15:59.092Z,5.03
2022-11-15T02:21:29.656Z,4.83
2022-11-15T02:24:30.753Z,7.23
2022-11-15T02:28:05.017Z,9.20
2022-11-15T02:33:45.201Z,5.03
2022-11-15T02:39:25.883Z,5.37
2022-11-15T02:45:07.125Z,4.73
2022-11-15T02:50:36.129Z,3.40
2022-11-15T02:56:12.650Z,4.30
2022-11-15T02:59:08.001Z,3.87
2022-11-15T03:02:06.468Z,3.53
2022-11-15T03:10:32.128Z,5.67
2022-11-15T03:13:25.679Z,3.07
2022-11-15T03:19:04.153Z,5.03
2022-11-15T03:21:53.545Z,3.70
2022-11-15T03:24:42.736Z,4.03
2022-11-15T03:27:33.114Z,2.83
2022-11-15T03:30:22.008Z,4.73
2022-11-15T03:35:58.074Z,3.83
2022-11-15T03:38:47.614Z,3.73
2022-11-15T03:44:24.184Z,2.53
2022-11-15T03:52:39.496Z,5.10
2022-11-15T03:55:27.956Z,5.47
2022-11-15T03:58:16.369Z,7.40
2022-11-15T04:03:46.818Z,6.50
2022-11-15T04:06:35.232Z,7.57
2022-11-15T04:12:10.121Z,6.27
2022-11-15T04:17:48.503Z,6.00
2022-11-15T04:20:54.433Z,5.03
2022-11-15T04:26:26.949Z,5.40
2022-11-15T04:29:33.130Z,4.20
2022-11-15T04:32:21.571Z,7.40
2022-11-15T04:37:57.622Z,4.70
2022-11-15T04:40:49.574Z,4.77
2022-11-15T04:43:37.831Z,4.83
2022-11-15T04:49:09.991Z,5.60
2022-11-15T04:51:58.022Z,5.40
2022-11-15T04:57:29.144Z,4.57
2022-11-15T05:03:23.371Z,4.43
2022-11-15T05:06:12.453Z,4.60
2022-11-15T05:11:43.369Z,4.17
2022-11-15T05:14:31.801Z,3.63
2022-11-15T05:20:09.099Z,4.00
2022-11-15T05:25:39.580Z,5.87
2022-11-15T05:31:15.508Z,5.03
2022-11-15T05:36:52.792Z,4.60
2022-11-15T05:39:43.666Z,6.60
2022-11-15T05:45:26.581Z,4.97
2022-11-15T05:48:13.394Z,6.93
2022-11-15T05:51:04.258Z,4.80
2022-11-15T05:53:53.574Z,4.77
2022-11-15T05:56:44.827Z,5.23
2022-11-15T06:02:24.135Z,5.17
2022-11-15T06:05:15.735Z,5.50
2022-11-15T06:08:04.161Z,4.50
2022-11-15T06:10:53.482Z,5.53
2022-11-15T06:13:42.153Z,5.87
2022-11-15T06:16:30.249Z,4.70
2022-11-15T06:19:19.332Z,5.13
2022-11-15T06:25:20.157Z,4.23
2022-11-15T06:30:54.846Z,5.67
2022-11-15T06:33:43.500Z,6.23
2022-11-15T06:39:20.119Z,7.33
2022-11-15T06:44:59.687Z,6.17
2022-11-15T06:50:34.268Z,4.60
2022-11-15T06:53:23.777Z,5.37
2022-11-15T06:56:11.994Z,6.70
2022-11-15T07:01:44.872Z,6.47
2022-11-15T07:12:11.988Z,11.30
2022-11-15T07:15:00.234Z,4.97
2022-11-15T07:17:49.065Z,6.13
2022-11-15T07:23:44.287Z,5.03
2022-11-15T07:29:35.873Z,6.57
2022-11-15T07:32:23.934Z,7.00
2022-11-15T07:38:01.101Z,7.10
2022-11-15T07:43:37.535Z,5.80
2022-11-15T07:52:36.739Z,4.87
2022-11-15T08:11:50.236Z,6.03
2022-11-15T08:14:39.457Z,3.47
2022-11-15T08:17:28.163Z,2.97
2022-11-15T08:25:51.969Z,3.70
2022-11-15T08:31:28.509Z,6.13
2022-11-15T08:34:18.337Z,5.13
2022-11-15T08:42:46.440Z,5.07
2022-11-15T08:48:21.094Z,4.23
2022-11-15T08:51:09.622Z,3.77
2022-11-15T08:53:58.294Z,4.30
2022-11-15T08:56:47.549Z,5.37
2022-11-15T09:02:23.543Z,4.20
2022-11-15T09:07:48.882Z,10.10
2022-11-15T09:10:37.415Z,11.80
2022-11-15T09:16:13.655Z,12.57
2022-11-15T09:19:01.986Z,12.03
2022-11-15T09:21:50.666Z,9.37
2022-11-15T09:27:24.941Z,9.73
2022-11-15T09:32:59.580Z,9.97
2022-11-15T09:35:47.966Z,8.23
2022-11-15T09:41:54.817Z,9.20
2022-11-15T09:54:37.473Z,9.40
2022-11-15T09:59:39.114Z,11.03
2022-11-15T10:08:18.763Z,9.90
2022-11-15T10:13:58.175Z,8.90
2022-11-15T10:19:41.770Z,11.97
2022-11-15T10:25:20.671Z,9.10
2022-11-15T10:33:42.662Z,8.53
2022-11-15T10:39:16.924Z,9.67
2022-11-15T10:45:25.208Z,13.83
2022-11-15T10:51:13.277Z,9.33
2022-11-15T10:56:54.039Z,8.77
2022-11-15T11:02:36.561Z,9.33
2022-11-15T11:08:25.590Z,11.53
2022-11-15T11:13:54.146Z,10.67
2022-11-15T11:19:51.593Z,9.00
2022-11-15T11:25:30.589Z,8.20
2022-11-15T11:31:17.354Z,6.90
2022-11-15T11:36:55.781Z,8.27
2022-11-15T11:42:38.081Z,5.67
2022-11-15T11:51:02.549Z,3.73
2022-11-15T11:56:48.206Z,7.17
2022-11-15T12:02:29.997Z,6.60
2022-11-15T12:08:25.024Z,4.70
2022-11-15T12:14:06.238Z,6.30
2022-11-15T12:19:45.597Z,4.03
2022-11-15T12:25:29.950Z,6.40
2022-11-15T12:31:15.015Z,4.77
2022-11-15T12:38:10.938Z,4.33
2022-11-15T12:44:06.261Z,4.40
2022-11-15T12:49:50.215Z,4.33
2022-11-15T12:58:45.447Z,5.40
2022-11-15T13:05:19.194Z,5.07
2022-11-15T13:10:57.132Z,4.97
2022-11-15T13:16:30.346Z,6.93
2022-11-15T13:19:18.475Z,6.20
2022-11-15T13:24:49.085Z,6.27
2022-11-15T13:30:24.636Z,4.60
2022-11-15T13:36:05.686Z,4.80
2022-11-15T13:41:53.326Z,4.70
2022-11-15T13:47:30.027Z,4.77
2022-11-15T13:53:08.028Z,6.23
2022-11-15T13:58:48.646Z,5.90
2022-11-15T14:01:37.585Z,5.10
2022-11-15T14:07:17.598Z,5.27
2022-11-15T14:16:36.203Z,6.73
2022-11-15T14:19:39.342Z,4.57
2022-11-15T14:25:23.913Z,6.27
2022-11-15T14:28:18.772Z,5.30
2022-11-15T14:33:51.348Z,4.37
2022-11-15T14:36:40.087Z,5.63
2022-11-15T14:39:28.875Z,4.80
2022-11-15T14:47:43.717Z,3.83
2022-11-15T14:53:18.977Z,7.93
2022-11-15T14:56:07.777Z,5.23
2022-11-15T15:04:30.865Z,5.30
2022-11-15T15:15:41.545Z,6.53
2022-11-15T15:18:29.792Z,5.90
2022-11-15T15:24:10.779Z,5.60
2022-11-15T15:29:43.623Z,6.27
2022-11-15T15:32:32.070Z,5.00
2022-11-15T15:38:06.307Z,7.57
2022-11-15T15:43:41.183Z,6.27
2022-11-15T15:49:16.285Z,5.93
2022-11-15T15:52:05.613Z,5.43
2022-11-15T15:57:42.499Z,5.73
2022-11-15T16:03:13.168Z,6.93
2022-11-15T16:09:00.291Z,5.17
2022-11-15T16:14:12.815Z,6.37
2022-11-15T16:19:46.445Z,4.10
2022-11-15T16:25:13.497Z,4.33
2022-11-15T16:28:01.795Z,5.73
2022-11-15T16:33:28.226Z,4.63
2022-11-15T16:38:58.402Z,6.13
2022-11-15T16:44:33.418Z,5.87
2022-11-15T16:52:57.243Z,6.43
2022-11-15T16:58:33.599Z,4.93
2022-11-15T17:04:13.285Z,5.90
2022-11-15T17:07:01.451Z,6.13
2022-11-15T17:09:50.556Z,6.47
2022-11-15T17:15:21.278Z,7.57
2022-11-15T17:20:53.383Z,7.07
2022-11-15T17:26:32.998Z,5.00
2022-11-15T17:34:39.827Z,5.80
2022-11-15T17:42:54.833Z,4.57
2022-11-15T17:49:06.829Z,6.30
2022-11-15T17:57:51.911Z,5.73
2022-11-15T18:01:26.379Z,4.70
2022-11-15T18:07:02.132Z,5.07
2022-11-15T18:09:50.768Z,8.47
2022-11-15T18:15:19.132Z,9.87
2022-11-15T18:18:11.444Z,6.60
2022-11-15T18:21:04.906Z,4.57
2022-11-15T18:29:21.785Z,8.80
2022-11-15T18:32:13.732Z,7.10
2022-11-15T18:37:41.777Z,6.77
2022-11-15T18:40:30.145Z,9.93
2022-11-15T18:46:09.929Z,8.33
2022-11-15T18:51:46.372Z,9.40
2022-11-15T18:57:12.821Z,12.00
2022-11-15T19:02:48.781Z,8.97
2022-11-15T19:08:18.321Z,8.47
2022-11-15T19:13:57.440Z,10.10
2022-11-15T19:16:49.877Z,8.73
2022-11-15T19:24:58.361Z,10.77
2022-11-15T19:30:26.176Z,8.53
2022-11-15T19:33:14.533Z,10.43
2022-11-15T19:38:50.436Z,10.43
2022-11-15T19:41:42.304Z,10.63
2022-11-15T19:44:30.609Z,9.43
2022-11-15T19:47:20.772Z,12.37
2022-11-15T19:50:13.078Z,11.50
2022-11-15T19:55:55.654Z,12.70
2022-11-15T19:58:47.269Z,12.83
2022-11-15T20:01:39.444Z,15.90
2022-11-15T20:04:31.164Z,12.43
2022-11-15T20:10:07.105Z,13.73
2022-11-15T20:15:45.163Z,15.00
2022-11-15T20:24:01.228Z,14.10
2022-11-15T20:35:09.743Z,12.93
2022-11-15T20:40:57.408Z,18.00
2022-11-15T20:46:24.452Z,15.27
2022-11-15T20:54:42.898Z,16.13
2022-11-15T20:57:31.491Z,15.97
2022-11-15T21:00:23.986Z,16.87
2022-11-15T21:03:12.849Z,17.60
2022-11-15T21:08:59.796Z,16.90
2022-11-15T21:12:05.991Z,18.10
2022-11-15T21:14:58.788Z,13.97
2022-11-15T21:20:35.581Z,15.63
2022-11-15T21:26:05.660Z,15.67
2022-11-15T21:34:35.195Z,16.03
2022-11-15T21:40:13.521Z,14.07
2022-11-15T21:45:46.711Z,16.93
2022-11-15T21:48:39.546Z,17.10
2022-11-15T21:51:28.955Z,20.47
2022-11-15T21:54:18.676Z,17.97
2022-11-15T22:00:22.626Z,14.00
2022-11-15T22:05:55.213Z,19.80
2022-11-15T22:11:35.378Z,14.80
2022-11-15T22:14:26.862Z,18.37
2022-11-15T22:20:16.589Z,15.47
2022-11-15T22:22:53.411Z,16.43
2022-11-15T22:28:28.565Z,15.57
2022-11-15T22:34:10.359Z,15.20
2022-11-15T22:39:47.779Z,12.83
2022-11-15T22:45:25.154Z,17.63
2022-11-15T22:51:00.353Z,15.33
2022-11-15T22:53:51.787Z,12.90
2022-11-15T22:59:26.016Z,16.03
2022-11-15T23:05:00.653Z,13.27
2022-11-15T23:07:52.054Z,15.87
2022-11-15T23:13:31.853Z,14.53
2022-11-15T23:16:23.389Z,14.67
2022-11-15T23:19:13.185Z,15.70
2022-11-15T23:22:19.135Z,15.47
2022-11-15T23:27:49.984Z,15.53
2022-11-15T23:33:46.888Z,13.67
2022-11-15T23:39:20.553Z,14.60
2022-11-15T23:42:11.042Z,15.87
2022-11-15T23:44:59.400Z,15.17
2022-11-15T23:47:47.770Z,14.83
2022-11-15T23:53:27.470Z,14.70
2022-11-15T23:56:18.533Z,14.27
